Time;durP1;ratioP1;P1;durP2;ratioP2;P2;SDS_P1;SDS_P2;PMS_P1;PMS_P2;Temp;Humidity;BMP_temperature;BMP_pressure;BME280_temperature;BME280_humidity;BME280_pressure;Samples;Min_cycle;Max_cycle;Signal;HPM_P1;HPM_P2
2023/03/25 00:00:21;;;;;;;12.98;2.78;;;8.40;99.90;;;;;;5034192;28;20041;-60
2023/03/25 00:02:48;;;;;;;14.88;2.85;;;8.40;99.90;;;;;;5033075;28;20060;-61
2023/03/25 00:05:15;;;;;;;20.58;2.97;;;8.40;99.90;;;;;;5034364;28;20033;-60
2023/03/25 00:07:41;;;;;;;14.93;2.60;;;8.50;99.90;;;;;;5034993;28;20034;-61
2023/03/25 00:10:08;;;;;;;11.70;2.15;;;8.40;99.90;;;;;;5034672;28;20046;-61
2023/03/25 00:12:35;;;;;;;12.57;2.42;;;8.50;99.90;;;;;;5035127;28;20068;-62
2023/03/25 00:15:02;;;;;;;12.55;2.33;;;8.50;99.90;;;;;;5034400;28;20040;-61
2023/03/25 00:17:29;;;;;;;14.23;3.17;;;8.50;99.90;;;;;;5033368;28;20052;-61
2023/03/25 00:19:56;;;;;;;10.35;2.33;;;8.50;99.90;;;;;;5033830;28;20099;-61
2023/03/25 00:22:23;;;;;;;9.82;2.13;;;8.50;99.90;;;;;;5032787;28;20072;-61
2023/03/25 00:24:50;;;;;;;16.83;2.80;;;8.40;99.90;;;;;;5034017;28;20038;-61
2023/03/25 00:27:17;;;;;;;19.27;2.50;;;8.40;99.90;;;;;;5034007;28;20049;-61
2023/03/25 00:29:44;;;;;;;12.60;2.70;;;8.40;99.90;;;;;;5034244;28;20054;-62
2023/03/25 00:32:10;;;;;;;10.05;2.03;;;8.40;99.90;;;;;;5032316;28;20056;-62
2023/03/25 00:34:46;;;;;;;14.18;2.80;;;8.40;99.90;;;;;;5034046;28;20045;-62
2023/03/25 00:37:16;;;;;;;11.98;2.38;;;8.40;99.90;;;;;;5032968;28;20381;-62
2023/03/25 00:39:43;;;;;;;12.55;2.20;;;8.40;99.90;;;;;;5032953;28;20098;-62
2023/03/25 00:42:12;;;;;;;11.65;2.20;;;8.40;99.90;;;;;;5032250;28;20132;-61
2023/03/25 00:44:39;;;;;;;11.95;2.65;;;8.40;99.90;;;;;;5033713;28;20050;-61
2023/03/25 00:47:06;;;;;;;12.90;3.10;;;8.40;99.90;;;;;;5032142;28;20448;-61
2023/03/25 00:49:33;;;;;;;19.20;2.95;;;8.40;99.90;;;;;;5033840;28;20042;-61
2023/03/25 00:52:00;;;;;;;17.13;2.67;;;8.50;99.90;;;;;;5033765;28;20385;-61
2023/03/25 00:54:27;;;;;;;14.93;3.78;;;8.50;99.90;;;;;;5032073;28;20472;-61
2023/03/25 00:56:54;;;;;;;16.30;3.00;;;8.50;99.90;;;;;;5033550;28;20041;-62
2023/03/25 00:59:21;;;;;;;14.10;2.80;;;8.60;99.90;;;;;;5033755;28;20128;-61
2023/03/25 01:01:51;;;;;;;14.32;2.75;;;8.60;99.90;;;;;;5032273;28;20048;-61
2023/03/25 01:04:18;;;;;;;14.75;2.47;;;8.60;99.90;;;;;;5033344;28;20385;-61
2023/03/25 01:06:50;;;;;;;15.15;2.65;;;8.60;99.90;;;;;;5033628;28;20049;-61
2023/03/25 01:09:18;;;;;;;13.30;2.30;;;8.50;99.90;;;;;;5033504;28;20068;-62
2023/03/25 01:11:45;;;;;;;16.33;2.70;;;8.50;99.90;;;;;;5032004;28;20077;-61
2023/03/25 01:14:11;;;;;;;13.60;2.58;;;8.50;99.90;;;;;;5033301;28;20045;-61
2023/03/25 01:16:38;;;;;;;15.57;2.97;;;8.40;99.90;;;;;;5033429;28;20540;-61
2023/03/25 01:19:05;;;;;;;12.10;2.42;;;8.40;99.90;;;;;;5033745;28;20481;-62
2023/03/25 01:21:35;;;;;;;16.10;2.60;;;8.30;99.90;;;;;;5033538;28;20092;-62
2023/03/25 01:24:02;;;;;;;12.88;2.42;;;8.30;99.90;;;;;;5033153;28;20041;-61
2023/03/25 01:26:29;;;;;;;16.05;2.55;;;8.30;99.90;;;;;;5031718;28;20544;-61
2023/03/25 01:28:56;;;;;;;10.75;2.40;;;8.20;99.90;;;;;;5033108;28;20095;-61
2023/03/25 01:31:28;;;;;;;17.42;3.45;;;8.20;99.90;;;;;;5033168;28;20046;-61
2023/03/25 01:33:56;;;;;;;16.15;2.90;;;8.20;99.90;;;;;;5033235;28;20080;-62
2023/03/25 01:36:23;;;;;;;14.35;2.40;;;8.10;99.90;;;;;;5032985;28;20041;-63
2023/03/25 01:38:50;;;;;;;13.57;2.70;;;8.10;99.90;;;;;;5033456;28;20069;-61
2023/03/25 01:41:17;;;;;;;21.13;2.45;;;8.10;99.90;;;;;;5032937;28;20113;-62
2023/03/25 01:43:44;;;;;;;22.05;3.50;;;8.10;99.90;;;;;;5032269;28;20073;-62
2023/03/25 01:46:12;;;;;;;13.75;2.60;;;8.10;99.90;;;;;;5031642;28;20496;-62
2023/03/25 01:48:39;;;;;;;15.18;2.72;;;8.10;99.90;;;;;;5032803;28;20056;-62
2023/03/25 01:51:06;;;;;;;13.35;2.47;;;8.10;99.90;;;;;;5032824;28;20120;-62
2023/03/25 01:53:33;;;;;;;13.35;2.35;;;8.10;99.90;;;;;;5032784;28;20051;-62
2023/03/25 01:56:01;;;;;;;14.35;2.40;;;8.10;99.90;;;;;;5031923;28;20045;-62
2023/03/25 01:58:28;;;;;;;15.15;2.22;;;8.10;99.90;;;;;;5032126;28;20104;-61
2023/03/25 02:00:56;;;;;;;11.57;2.20;;;8.10;99.90;;;;;;5033287;28;20044;-61
2023/03/25 02:03:23;;;;;;;9.93;2.83;;;8.10;99.90;;;;;;5033392;28;20496;-61
2023/03/25 02:05:50;;;;;;;12.80;2.55;;;8.10;99.90;;;;;;5031610;28;20128;-62
2023/03/25 02:08:17;;;;;;;17.60;2.67;;;8.10;99.90;;;;;;5031709;28;20042;-62
2023/03/25 02:10:44;;;;;;;13.07;2.63;;;8.10;99.90;;;;;;5033115;28;20086;-62
2023/03/25 02:13:11;;;;;;;14.95;2.63;;;8.10;99.90;;;;;;5031270;28;20042;-62
2023/03/25 02:15:38;;;;;;;11.45;2.20;;;8.10;99.90;;;;;;5032569;28;20048;-62
2023/03/25 02:18:05;;;;;;;16.98;2.67;;;8.10;99.90;;;;;;5031907;28;20052;-62
2023/03/25 02:20:32;;;;;;;12.50;2.42;;;8.10;99.90;;;;;;5036186;28;20057;-62
2023/03/25 02:22:58;;;;;;;12.18;2.30;;;8.10;99.90;;;;;;5036178;28;20038;-62
2023/03/25 02:25:25;;;;;;;12.27;2.65;;;8.10;99.90;;;;;;5036085;28;20041;-62
2023/03/25 02:27:52;;;;;;;14.30;2.30;;;8.10;99.90;;;;;;5035094;28;20053;-62
2023/03/25 02:30:19;;;;;;;12.27;2.00;;;8.10;99.90;;;;;;5035208;28;20041;-61
2023/03/25 02:32:47;;;;;;;14.05;2.55;;;8.10;99.90;;;;;;5034934;28;20046;-62
2023/03/25 02:35:14;;;;;;;15.25;2.28;;;8.20;99.90;;;;;;5034884;28;20046;-62
2023/03/25 02:37:45;;;;;;;14.43;2.25;;;8.20;99.90;;;;;;5035860;28;20107;-62
2023/03/25 02:40:17;;;;;;;13.52;2.15;;;8.20;99.90;;;;;;5034811;28;20041;-62
2023/03/25 02:42:44;;;;;;;12.32;2.33;;;8.20;99.90;;;;;;5036059;28;20077;-62
2023/03/25 02:45:11;;;;;;;12.55;2.33;;;8.20;99.90;;;;;;5034477;28;20034;-62
2023/03/25 02:47:38;;;;;;;14.82;2.38;;;8.20;99.90;;;;;;5034723;28;20059;-62
2023/03/25 02:50:06;;;;;;;14.93;2.67;;;8.20;99.90;;;;;;5034727;28;20044;-62
2023/03/25 02:52:33;;;;;;;10.85;2.35;;;8.20;99.90;;;;;;5036189;28;20045;-62
2023/03/25 02:55:00;;;;;;;17.83;2.72;;;8.20;99.90;;;;;;5034181;28;20517;-61
2023/03/25 02:57:28;;;;;;;14.00;2.47;;;8.20;99.90;;;;;;5034744;28;20049;-61
2023/03/25 02:59:55;;;;;;;15.02;2.78;;;8.20;99.90;;;;;;5017918;28;20051;-62
2023/03/25 03:02:22;;;;;;;12.32;2.78;;;8.20;99.90;;;;;;5035442;28;20038;-62
2023/03/25 03:04:49;;;;;;;10.82;2.15;;;8.20;99.90;;;;;;5034481;28;20083;-62
2023/03/25 03:07:16;;;;;;;16.85;2.80;;;8.30;99.90;;;;;;5034419;28;20100;-62
2023/03/25 03:09:43;;;;;;;11.85;2.00;;;8.30;99.90;;;;;;5033935;28;20033;-62
2023/03/25 03:12:10;;;;;;;15.88;2.72;;;8.30;99.90;;;;;;5035494;28;20469;-62
2023/03/25 03:14:37;;;;;;;17.77;3.83;;;8.30;99.90;;;;;;5035326;28;20044;-62
2023/03/25 03:17:04;;;;;;;16.05;3.10;;;8.30;99.90;;;;;;5035372;28;20049;-62
2023/03/25 03:19:33;;;;;;;14.68;2.85;;;8.30;99.90;;;;;;5035702;28;20041;-62
2023/03/25 03:22:00;;;;;;;12.05;2.38;;;8.30;99.90;;;;;;5033858;28;20050;-62
2023/03/25 03:24:26;;;;;;;16.33;2.55;;;8.30;99.90;;;;;;5035503;28;20443;-62
2023/03/25 03:26:54;;;;;;;17.58;2.60;;;8.30;99.90;;;;;;5034974;28;20099;-61
2023/03/25 03:29:20;;;;;;;15.48;3.03;;;8.20;99.90;;;;;;5035092;28;20037;-62
2023/03/25 03:31:47;;;;;;;13.73;2.78;;;8.20;99.90;;;;;;5033865;28;20037;-62
2023/03/25 03:34:39;;;;;;;17.27;2.75;;;8.20;99.90;;;;;;5035436;28;20049;-62
2023/03/25 03:37:06;;;;;;;20.70;2.90;;;8.20;99.90;;;;;;5033958;28;20037;-62
2023/03/25 03:39:33;;;;;;;14.70;2.50;;;8.10;99.90;;;;;;5033601;28;20366;-61
2023/03/25 03:42:00;;;;;;;13.55;2.63;;;8.10;99.90;;;;;;5034544;28;20052;-62
2023/03/25 03:44:27;;;;;;;15.00;2.90;;;8.10;99.90;;;;;;5034515;28;20064;-61
2023/03/25 03:46:53;;;;;;;15.93;2.58;;;8.10;99.90;;;;;;5035090;28;20043;-62
2023/03/25 03:49:20;;;;;;;22.00;2.58;;;8.10;99.90;;;;;;5034440;28;20489;-62
2023/03/25 03:51:47;;;;;;;12.75;2.95;;;8.10;99.90;;;;;;5034559;28;20037;-62
2023/03/25 03:54:14;;;;;;;15.80;3.08;;;8.10;99.90;;;;;;5034547;28;20076;-61
2023/03/25 03:56:45;;;;;;;14.27;2.70;;;8.10;99.90;;;;;;5034393;28;20050;-62
2023/03/25 03:59:12;;;;;;;14.05;2.75;;;8.10;99.90;;;;;;5034305;28;20041;-61
2023/03/25 04:01:44;;;;;;;12.73;2.30;;;8.10;99.90;;;;;;5034248;28;20088;-61
2023/03/25 04:04:12;;;;;;;7.55;2.50;;;8.10;99.90;;;;;;5032948;28;20038;-61
2023/03/25 04:06:40;;;;;;;15.85;3.35;;;8.10;99.90;;;;;;5034247;28;20520;-62
2023/03/25 04:09:07;;;;;;;12.73;2.95;;;8.10;99.90;;;;;;5034202;28;20084;-61
2023/03/25 04:11:34;;;;;;;15.20;3.05;;;8.00;99.90;;;;;;5034522;28;20061;-62
2023/03/25 04:14:01;;;;;;;9.73;2.30;;;8.00;99.90;;;;;;5034401;28;20041;-62
2023/03/25 04:16:28;;;;;;;12.93;2.80;;;8.00;99.90;;;;;;5034640;28;20049;-62
2023/03/25 04:18:57;;;;;;;14.15;2.83;;;8.00;99.90;;;;;;5033976;28;20133;-63
2023/03/25 04:21:24;;;;;;;16.45;2.58;;;8.00;99.90;;;;;;5034233;28;20044;-62
2023/03/25 04:23:51;;;;;;;11.93;2.45;;;8.00;99.90;;;;;;5034555;28;20049;-63
2023/03/25 04:26:18;;;;;;;13.82;2.40;;;8.10;99.90;;;;;;5034081;28;20072;-63
2023/03/25 04:28:45;;;;;;;11.55;2.35;;;8.10;99.90;;;;;;5034489;28;20033;-62
2023/03/25 04:31:14;;;;;;;17.30;2.90;;;8.10;99.90;;;;;;5032663;28;21027;-62
2023/03/25 04:33:41;;;;;;;16.08;2.65;;;8.10;99.90;;;;;;5033667;28;20456;-62
2023/03/25 04:36:08;;;;;;;10.18;2.30;;;8.10;99.90;;;;;;5033882;28;20103;-62
2023/03/25 04:38:36;;;;;;;11.52;2.42;;;8.00;99.90;;;;;;5033897;28;20099;-62
2023/03/25 04:41:05;;;;;;;14.70;2.38;;;8.00;99.90;;;;;;5033582;28;20128;-63
2023/03/25 04:43:32;;;;;;;15.65;2.55;;;8.00;99.90;;;;;;5033448;28;20128;-62
2023/03/25 04:45:59;;;;;;;13.75;2.70;;;8.00;99.90;;;;;;5033558;28;20045;-62
2023/03/25 04:48:28;;;;;;;13.88;2.75;;;8.00;99.90;;;;;;5032611;28;20523;-62
2023/03/25 04:50:56;;;;;;;15.95;3.05;;;8.00;99.90;;;;;;5033698;28;20119;-63
2023/03/25 04:53:23;;;;;;;21.98;3.10;;;8.00;99.90;;;;;;5033518;28;20046;-62
2023/03/25 04:55:50;;;;;;;18.75;3.28;;;8.00;99.90;;;;;;5033760;28;20461;-63
2023/03/25 04:58:17;;;;;;;18.35;2.58;;;8.00;99.90;;;;;;5033899;28;20072;-63
2023/03/25 05:00:44;;;;;;;18.52;2.72;;;8.00;99.90;;;;;;5033755;28;20092;-63
2023/03/25 05:03:10;;;;;;;12.27;2.40;;;8.00;99.90;;;;;;5033229;28;20044;-63
2023/03/25 05:05:37;;;;;;;13.43;2.80;;;8.00;99.90;;;;;;5033448;28;20065;-62
2023/03/25 05:08:04;;;;;;;21.77;2.90;;;8.10;99.90;;;;;;5033292;28;20049;-63
2023/03/25 05:10:31;;;;;;;21.10;3.35;;;8.10;99.90;;;;;;5033863;28;20041;-63
2023/03/25 05:12:57;;;;;;;17.85;3.00;;;8.20;99.90;;;;;;5033491;28;20045;-62
2023/03/25 05:15:25;;;;;;;15.73;2.20;;;8.30;99.90;;;;;;5033401;28;20038;-63
2023/03/25 05:17:52;;;;;;;14.90;2.78;;;8.30;99.90;;;;;;5033354;28;20069;-62
2023/03/25 05:20:18;;;;;;;18.33;3.78;;;8.30;99.90;;;;;;5033576;28;20042;-62
2023/03/25 05:22:45;;;;;;;17.10;3.50;;;8.30;99.90;;;;;;5033461;28;20057;-63
2023/03/25 05:25:12;;;;;;;17.60;2.88;;;8.40;99.90;;;;;;5033884;28;20037;-62
2023/03/25 05:27:39;;;;;;;16.27;3.15;;;8.40;99.90;;;;;;5033168;28;20484;-62
2023/03/25 05:30:05;;;;;;;20.30;3.17;;;8.50;99.90;;;;;;5033174;28;20091;-63
2023/03/25 05:32:32;;;;;;;25.67;3.13;;;8.50;99.90;;;;;;5033311;28;20055;-62
2023/03/25 05:34:59;;;;;;;17.50;3.08;;;8.50;99.90;;;;;;5032952;28;20041;-63
2023/03/25 05:37:26;;;;;;;18.08;3.13;;;8.60;99.90;;;;;;5033327;28;20037;-62
2023/03/25 05:39:53;;;;;;;15.52;2.78;;;8.60;99.90;;;;;;5031797;28;20080;-63
2023/03/25 05:42:21;;;;;;;14.70;3.17;;;8.60;99.90;;;;;;5033433;28;20069;-63
2023/03/25 05:44:51;;;;;;;21.05;3.80;;;8.70;99.90;;;;;;5033153;28;20129;-63
2023/03/25 05:47:19;;;;;;;15.63;3.15;;;8.70;99.90;;;;;;5033118;28;20042;-62
2023/03/25 05:49:45;;;;;;;21.48;3.20;;;8.80;99.90;;;;;;5032965;28;20467;-62
2023/03/25 05:52:12;;;;;;;16.25;3.60;;;8.80;99.90;;;;;;5033523;28;20052;-62
2023/03/25 05:54:40;;;;;;;17.58;3.10;;;8.80;99.90;;;;;;5034825;28;20045;-61
2023/03/25 05:57:07;;;;;;;17.27;3.20;;;8.80;99.90;;;;;;5036843;28;20087;-62
2023/03/25 05:59:37;;;;;;;13.35;2.83;;;8.90;99.90;;;;;;5036771;28;20365;-61
2023/03/25 06:02:06;;;;;;;10.32;2.50;;;8.90;99.90;;;;;;5036897;28;20042;-63
2023/03/25 06:04:36;;;;;;;12.65;2.90;;;8.90;99.90;;;;;;5036703;28;20040;-61
2023/03/25 06:07:03;;;;;;;14.80;3.20;;;8.90;99.90;;;;;;5036987;28;20052;-61
2023/03/25 06:09:33;;;;;;;18.17;2.78;;;9.00;99.90;;;;;;5036666;28;20041;-61
2023/03/25 06:12:00;;;;;;;15.82;2.67;;;9.00;99.90;;;;;;5036515;28;20049;-62
2023/03/25 06:14:27;;;;;;;16.38;2.80;;;9.00;99.90;;;;;;5036752;28;20069;-63
2023/03/25 06:16:55;;;;;;;17.83;3.00;;;9.00;99.90;;;;;;5037061;28;20111;-61
2023/03/25 06:19:25;;;;;;;18.48;3.42;;;9.00;99.90;;;;;;5036318;28;20069;-61
2023/03/25 06:21:52;;;;;;;15.77;2.70;;;9.00;99.90;;;;;;5035012;28;20207;-62
2023/03/25 06:24:19;;;;;;;17.23;3.47;;;9.10;99.90;;;;;;5036623;28;20073;-63
2023/03/25 06:26:45;;;;;;;15.27;2.45;;;9.10;99.90;;;;;;5036321;28;20389;-63
2023/03/25 06:29:12;;;;;;;21.25;4.05;;;9.10;99.90;;;;;;5036404;28;20092;-63
2023/03/25 06:31:39;;;;;;;13.85;2.83;;;9.10;99.90;;;;;;5035607;28;20037;-63
2023/03/25 06:34:06;;;;;;;20.42;4.30;;;9.20;99.90;;;;;;5036687;28;20061;-63
2023/03/25 06:36:33;;;;;;;20.50;4.25;;;9.20;99.90;;;;;;5036127;28;20041;-62
2023/03/25 06:39:00;;;;;;;19.50;3.40;;;9.20;99.90;;;;;;5036272;28;20115;-62
2023/03/25 06:41:28;;;;;;;18.08;3.53;;;9.30;99.90;;;;;;5035135;28;20120;-62
2023/03/25 06:44:08;;;;;;;21.95;3.28;;;9.30;99.90;;;;;;5035181;28;20389;-63
2023/03/25 06:46:44;;;;;;;18.70;3.03;;;9.30;99.90;;;;;;5036670;28;20099;-62
2023/03/25 06:49:14;;;;;;;16.48;2.95;;;9.30;99.90;;;;;;5035161;28;20420;-63
2023/03/25 06:51:41;;;;;;;14.48;3.58;;;9.40;99.90;;;;;;5035885;28;20041;-63
2023/03/25 06:54:08;;;;;;;16.85;3.28;;;9.40;99.90;;;;;;5036197;28;20374;-63
2023/03/25 06:56:35;;;;;;;15.80;3.25;;;9.40;99.90;;;;;;5035705;28;20046;-61
2023/03/25 06:59:02;;;;;;;13.57;2.60;;;9.40;99.90;;;;;;5034476;28;20407;-63
2023/03/25 07:01:29;;;;;;;17.25;2.92;;;9.40;99.90;;;;;;5035581;28;20048;-62
2023/03/25 07:03:55;;;;;;;21.83;3.25;;;9.40;99.90;;;;;;5035657;28;20045;-63
2023/03/25 07:06:22;;;;;;;14.80;3.15;;;9.50;99.90;;;;;;5035284;28;20041;-62
2023/03/25 07:08:49;;;;;;;17.15;3.53;;;9.50;99.90;;;;;;5035979;28;20041;-63
2023/03/25 07:11:16;;;;;;;22.55;4.20;;;9.50;99.90;;;;;;5035974;28;20050;-62
2023/03/25 07:13:43;;;;;;;15.10;3.13;;;9.60;99.90;;;;;;5035407;28;20432;-63
2023/03/25 07:16:10;;;;;;;19.05;3.22;;;9.60;99.90;;;;;;5035570;28;20060;-63
2023/03/25 07:18:40;;;;;;;16.77;3.28;;;9.60;99.90;;;;;;5035531;28;20049;-62
2023/03/25 07:21:06;;;;;;;13.68;2.83;;;9.70;99.90;;;;;;5035612;28;20041;-62
2023/03/25 07:23:33;;;;;;;14.95;2.92;;;9.70;99.90;;;;;;5035066;28;20042;-63
2023/03/25 07:26:00;;;;;;;21.33;3.40;;;9.70;99.90;;;;;;5035081;28;20172;-63
2023/03/25 07:28:27;;;;;;;20.15;3.28;;;9.80;99.90;;;;;;5035454;28;20048;-63
2023/03/25 07:30:53;;;;;;;17.13;3.15;;;9.80;99.90;;;;;;5035095;28;20477;-63
2023/03/25 07:33:20;;;;;;;22.48;3.20;;;9.90;99.90;;;;;;5034954;28;20507;-62
2023/03/25 07:35:47;;;;;;;19.27;3.33;;;9.90;99.90;;;;;;5035580;28;20041;-62
2023/03/25 07:38:14;;;;;;;16.27;3.05;;;10.00;99.90;;;;;;5035226;28;20092;-62
2023/03/25 07:40:41;;;;;;;17.42;3.45;;;10.10;99.90;;;;;;5035486;28;20095;-62
2023/03/25 07:43:07;;;;;;;15.00;2.60;;;10.00;99.90;;;;;;5034766;28;20370;-63
2023/03/25 07:45:41;;;;;;;13.40;2.67;;;10.10;99.90;;;;;;5033512;28;20044;-63
2023/03/25 07:48:13;;;;;;;13.77;2.67;;;10.00;99.90;;;;;;5035348;28;20095;-63
2023/03/25 07:50:40;;;;;;;15.85;3.53;;;10.00;99.90;;;;;;5035004;28;20052;-63
2023/03/25 07:53:07;;;;;;;15.55;3.05;;;9.90;99.90;;;;;;5034730;28;20046;-62
2023/03/25 07:55:34;;;;;;;15.73;3.83;;;9.80;99.90;;;;;;5034896;28;20057;-63
2023/03/25 07:58:01;;;;;;;16.95;3.53;;;9.70;99.90;;;;;;5034837;28;20094;-63
2023/03/25 08:00:28;;;;;;;16.65;3.20;;;9.70;99.90;;;;;;5034767;28;20074;-63
2023/03/25 08:02:55;;;;;;;19.17;4.15;;;9.70;99.90;;;;;;5033096;28;20033;-63
2023/03/25 08:05:22;;;;;;;12.02;2.72;;;9.70;99.90;;;;;;5034431;28;20037;-62
2023/03/25 08:07:49;;;;;;;12.32;2.90;;;9.80;99.90;;;;;;5034134;28;20087;-62
2023/03/25 08:10:16;;;;;;;16.13;3.10;;;9.80;99.90;;;;;;5034400;28;20044;-62
2023/03/25 08:12:42;;;;;;;11.85;2.53;;;9.90;99.90;;;;;;5034189;28;20463;-62
2023/03/25 08:15:10;;;;;;;14.30;2.63;;;10.00;99.90;;;;;;5034427;28;20539;-63
2023/03/25 08:17:37;;;;;;;14.68;2.88;;;10.10;99.90;;;;;;5034035;28;20408;-63
2023/03/25 08:20:04;;;;;;;19.75;4.05;;;10.20;99.90;;;;;;5034551;28;20045;-62
2023/03/25 08:22:31;;;;;;;14.20;2.95;;;10.20;99.90;;;;;;5033756;28;20464;-63
2023/03/25 08:24:58;;;;;;;17.77;2.67;;;10.20;99.90;;;;;;5033868;28;20484;-62
2023/03/25 08:27:25;;;;;;;12.27;2.65;;;10.20;99.90;;;;;;5032689;28;20144;-62
2023/03/25 08:29:56;;;;;;;16.48;2.95;;;10.30;99.90;;;;;;5032598;28;20073;-62
2023/03/25 08:32:22;;;;;;;12.77;2.53;;;10.40;99.90;;;;;;5033874;28;20070;-62
2023/03/25 08:34:49;;;;;;;16.35;3.65;;;10.40;99.90;;;;;;5033790;28;20037;-62
2023/03/25 08:37:16;;;;;;;11.38;2.60;;;10.40;99.90;;;;;;5033663;28;20099;-62
2023/03/25 08:39:44;;;;;;;10.20;2.85;;;10.40;99.90;;;;;;5034183;28;20112;-62
2023/03/25 08:42:11;;;;;;;9.10;2.63;;;10.40;99.90;;;;;;5033895;28;20037;-63
2023/03/25 08:44:37;;;;;;;15.02;2.97;;;10.50;99.90;;;;;;5034012;28;20376;-62
2023/03/25 08:47:04;;;;;;;13.73;2.95;;;10.50;99.90;;;;;;5034133;28;20112;-62
2023/03/25 08:49:31;;;;;;;13.10;2.60;;;10.50;99.90;;;;;;5034172;28;20049;-63
2023/03/25 08:51:59;;;;;;;18.48;2.75;;;10.60;99.90;;;;;;5033862;28;20472;-63
2023/03/25 08:54:26;;;;;;;13.07;2.83;;;10.70;99.90;;;;;;5034102;28;20068;-63
2023/03/25 08:56:53;;;;;;;12.27;2.83;;;10.70;99.90;;;;;;5033616;28;20049;-63
2023/03/25 08:59:19;;;;;;;19.90;3.28;;;10.80;99.90;;;;;;5033653;28;20038;-62
2023/03/25 09:01:46;;;;;;;12.43;2.90;;;10.70;99.90;;;;;;5033333;28;20116;-62
2023/03/25 09:04:13;;;;;;;15.45;2.95;;;10.80;99.90;;;;;;5033195;28;20041;-62
2023/03/25 09:06:40;;;;;;;15.15;3.10;;;10.70;99.90;;;;;;5033597;28;20052;-63
2023/03/25 09:09:14;;;;;;;11.68;2.53;;;10.70;99.90;;;;;;5033777;28;20072;-62
2023/03/25 09:11:41;;;;;;;19.92;3.88;;;10.80;99.90;;;;;;5033582;28;20087;-62
2023/03/25 09:14:07;;;;;;;16.05;2.88;;;10.80;99.90;;;;;;5033189;28;20057;-63
2023/03/25 09:16:34;;;;;;;15.88;2.70;;;10.90;99.90;;;;;;5033257;28;20095;-63
2023/03/25 09:19:01;;;;;;;16.08;3.08;;;10.90;99.90;;;;;;5033449;28;20053;-63
2023/03/25 09:21:28;;;;;;;12.65;2.47;;;11.00;99.90;;;;;;5033608;28;20342;-63
2023/03/25 09:23:54;;;;;;;17.05;3.28;;;11.00;99.90;;;;;;5033323;28;20060;-64
2023/03/25 09:26:21;;;;;;;14.23;3.47;;;11.00;99.90;;;;;;5033021;28;20152;-64
2023/03/25 09:28:48;;;;;;;10.85;2.58;;;11.10;99.90;;;;;;5036024;28;20049;-62
2023/03/25 09:31:15;;;;;;;9.20;2.25;;;11.10;99.90;;;;;;5037014;28;20042;-63
2023/03/25 09:33:41;;;;;;;11.10;2.33;;;11.10;99.90;;;;;;5036939;28;20049;-62
2023/03/25 09:36:08;;;;;;;12.55;2.88;;;11.10;99.90;;;;;;5037145;28;20508;-62
2023/03/25 09:38:35;;;;;;;15.80;2.40;;;11.10;99.90;;;;;;5037129;28;20050;-63
2023/03/25 09:41:02;;;;;;;14.98;2.50;;;11.10;99.90;;;;;;5037076;28;20045;-63
2023/03/25 09:43:29;;;;;;;11.88;2.58;;;11.10;99.90;;;;;;5037330;28;20048;-63
2023/03/25 09:45:55;;;;;;;13.18;2.50;;;11.20;99.90;;;;;;5036859;28;20113;-62
2023/03/25 09:48:22;;;;;;;13.05;2.58;;;11.20;99.90;;;;;;5036799;28;20076;-63
2023/03/25 09:50:49;;;;;;;10.70;2.35;;;11.20;99.90;;;;;;5036962;28;20127;-63
2023/03/25 09:53:16;;;;;;;8.63;1.80;;;11.30;99.90;;;;;;5036776;28;20037;-62
2023/03/25 09:55:42;;;;;;;15.18;2.60;;;11.30;99.90;;;;;;5037010;28;20128;-63
2023/03/25 09:58:09;;;;;;;14.35;2.70;;;11.40;99.90;;;;;;5036826;28;20381;-63
2023/03/25 10:00:36;;;;;;;10.73;2.10;;;11.40;99.90;;;;;;5035275;28;20054;-63
2023/03/25 10:03:03;;;;;;;8.63;1.85;;;11.40;99.90;;;;;;5036363;28;20041;-63
2023/03/25 10:05:30;;;;;;;11.25;2.60;;;11.40;99.90;;;;;;5036789;28;20385;-62
2023/03/25 10:07:56;;;;;;;9.25;1.83;;;11.40;99.90;;;;;;5036948;28;20477;-63
2023/03/25 10:10:23;;;;;;;10.57;2.50;;;11.60;99.90;;;;;;5037031;28;20132;-64
2023/03/25 10:12:50;;;;;;;14.05;2.58;;;11.70;99.90;;;;;;5036923;28;20038;-63
2023/03/25 10:15:17;;;;;;;11.70;2.40;;;11.80;99.90;;;;;;5036606;28;20076;-63
2023/03/25 10:17:44;;;;;;;12.88;3.10;;;12.00;99.90;;;;;;5036415;28;20049;-63
2023/03/25 10:20:11;;;;;;;12.63;2.25;;;12.10;99.90;;;;;;5036787;28;20047;-63
2023/03/25 10:22:38;;;;;;;10.43;3.00;;;12.20;99.90;;;;;;5036539;28;20047;-60
2023/03/25 10:25:05;;;;;;;13.82;2.90;;;12.30;99.90;;;;;;5036852;28;20376;-64
2023/03/25 10:27:32;;;;;;;16.05;3.20;;;12.40;99.90;;;;;;5035960;28;20054;-63
2023/03/25 10:29:59;;;;;;;13.20;3.25;;;12.50;99.90;;;;;;5036666;28;20179;-63
2023/03/25 10:32:25;;;;;;;11.73;2.72;;;12.50;99.90;;;;;;5036815;28;20111;-63
2023/03/25 10:34:54;;;;;;;11.88;2.50;;;12.40;99.90;;;;;;5035321;28;20353;-63
2023/03/25 10:37:23;;;;;;;17.23;2.72;;;12.40;99.90;;;;;;5036148;28;20519;-63
2023/03/25 10:39:49;;;;;;;12.40;2.40;;;12.40;99.90;;;;;;5035544;28;20057;-63
2023/03/25 10:42:17;;;;;;;10.60;2.20;;;12.40;99.90;;;;;;5036492;28;20059;-63
2023/03/25 10:44:44;;;;;;;9.07;2.25;;;12.50;99.90;;;;;;5036126;28;20132;-64
2023/03/25 10:47:10;;;;;;;10.40;3.15;;;12.60;99.90;;;;;;5035686;28;20034;-63
2023/03/25 10:49:37;;;;;;;11.55;2.85;;;12.70;99.90;;;;;;5036104;28;20045;-63
2023/03/25 10:52:04;;;;;;;11.85;2.30;;;12.80;99.90;;;;;;5035652;28;20034;-63
2023/03/25 10:54:31;;;;;;;11.38;2.22;;;12.70;99.90;;;;;;5034128;28;20092;-63
2023/03/25 10:56:58;;;;;;;11.32;2.17;;;12.70;99.90;;;;;;5035476;28;20128;-63
2023/03/25 10:59:26;;;;;;;10.38;1.83;;;12.60;99.90;;;;;;5035933;28;20042;-63
2023/03/25 11:01:53;;;;;;;10.82;2.47;;;12.50;99.90;;;;;;5033949;28;20514;-62
2023/03/25 11:04:20;;;;;;;8.32;2.00;;;12.50;99.90;;;;;;5035099;28;20115;-63
2023/03/25 11:06:47;;;;;;;7.22;2.22;;;12.60;99.90;;;;;;5035118;28;20556;-62
2023/03/25 11:09:14;;;;;;;9.30;1.70;;;12.60;99.90;;;;;;5035621;28;20049;-62
2023/03/25 11:11:41;;;;;;;5.78;1.90;;;12.70;99.90;;;;;;5035063;28;20033;-62
2023/03/25 11:14:08;;;;;;;6.85;1.30;;;12.80;99.90;;;;;;5035254;28;20037;-61
2023/03/25 11:16:35;;;;;;;6.05;1.40;;;12.80;99.90;;;;;;5035446;28;20385;-63
2023/03/25 11:19:02;;;;;;;6.57;1.67;;;12.80;99.90;;;;;;5035759;28;20072;-63
2023/03/25 11:21:29;;;;;;;8.40;1.90;;;13.00;99.90;;;;;;5035109;28;20051;-63
2023/03/25 11:23:55;;;;;;;9.77;2.05;;;13.10;99.90;;;;;;5034918;28;20069;-63
2023/03/25 11:26:22;;;;;;;9.93;1.85;;;13.10;99.90;;;;;;5034663;28;20140;-62
2023/03/25 11:28:49;;;;;;;12.00;2.67;;;13.10;99.90;;;;;;5034770;28;20061;-63
2023/03/25 11:31:16;;;;;;;11.82;2.30;;;13.10;99.90;;;;;;5035116;28;20075;-63
2023/03/25 11:33:43;;;;;;;9.38;2.03;;;13.10;99.90;;;;;;5034815;28;20462;-63
2023/03/25 11:36:09;;;;;;;13.00;2.35;;;13.10;99.90;;;;;;5034596;28;20053;-62
2023/03/25 11:38:36;;;;;;;10.38;2.33;;;13.10;99.90;;;;;;5033138;28;20071;-61
2023/03/25 11:41:03;;;;;;;12.32;2.03;;;13.10;99.90;;;;;;5033656;28;20049;-62
2023/03/25 11:43:30;;;;;;;10.70;2.47;;;13.10;99.90;;;;;;5034727;28;20424;-62
2023/03/25 11:45:57;;;;;;;13.60;2.35;;;13.10;99.90;;;;;;5034274;28;20365;-62
2023/03/25 11:48:24;;;;;;;10.27;2.35;;;13.20;99.90;;;;;;5032817;28;20045;-62
2023/03/25 11:50:51;;;;;;;8.55;2.13;;;13.30;99.90;;;;;;5033887;28;20041;-62
2023/03/25 11:53:19;;;;;;;11.23;1.95;;;13.40;99.90;;;;;;5034012;28;20049;-62
2023/03/25 11:55:45;;;;;;;9.10;1.85;;;13.60;99.90;;;;;;5034649;28;20037;-63
2023/03/25 11:58:12;;;;;;;10.18;3.00;;;13.60;99.90;;;;;;5034730;28;20104;-62
2023/03/25 12:00:39;;;;;;;8.60;1.85;;;13.60;99.90;;;;;;5034208;28;20037;-62
2023/03/25 12:03:06;;;;;;;9.75;2.05;;;13.70;99.90;;;;;;5034147;28;20080;-63
2023/03/25 12:05:32;;;;;;;12.05;2.05;;;13.70;99.90;;;;;;5034572;28;20428;-62
2023/03/25 12:07:59;;;;;;;8.93;2.00;;;13.90;99.90;;;;;;5034219;28;20080;-62
2023/03/25 12:10:26;;;;;;;6.90;2.10;;;13.70;99.90;;;;;;5034432;28;20417;-62
2023/03/25 12:12:59;;;;;;;6.00;1.63;;;13.70;99.90;;;;;;5070886;28;20494;-61
2023/03/25 12:15:26;;;;;;;8.43;1.95;;;13.70;99.90;;;;;;5071017;28;20457;-61
2023/03/25 12:17:53;;;;;;;8.32;1.95;;;13.70;99.90;;;;;;5070968;28;20079;-62
2023/03/25 12:20:20;;;;;;;9.70;2.35;;;13.80;99.90;;;;;;5070296;28;20440;-62
2023/03/25 12:22:46;;;;;;;8.77;2.10;;;13.90;99.90;;;;;;5069357;28;20045;-62
2023/03/25 12:25:13;;;;;;;11.77;2.17;;;13.90;99.90;;;;;;5069218;28;20075;-62
2023/03/25 12:27:40;;;;;;;12.68;1.83;;;13.90;99.90;;;;;;5070699;28;20116;-62
2023/03/25 12:30:07;;;;;;;8.80;1.60;;;13.90;99.90;;;;;;5070711;28;20407;-61
2023/03/25 12:32:33;;;;;;;7.47;1.83;;;13.80;99.90;;;;;;5070344;28;20036;-62
2023/03/25 12:35:00;;;;;;;8.40;4.82;;;13.80;99.90;;;;;;5070438;28;20109;-62
2023/03/25 12:37:27;;;;;;;19.27;13.55;;;13.80;99.90;;;;;;5069342;28;20064;-62
2023/03/25 12:39:54;;;;;;;9.30;2.22;;;13.80;99.90;;;;;;5070078;28;20041;-62
2023/03/25 12:42:21;;;;;;;7.32;2.03;;;13.70;99.90;;;;;;5070734;28;20064;-62